Saint Louis, Missouri
Current Conditions -  °F | °C
As of 7:53 PM on Tuesday 25 Nov 2014 (Local Time) from KCPS Reporting Station
Clear Clear  
Wind Chill: -2°   Ceiling: Unl
Heat Index: -2°   Visibility: 10mi
Dew Point: -4°   Wind: 0mph
Humidity: 82%   Direction: NA
Pressure: 30.19"   Gusts: NA
Location:  38.63°N, 90.24°W
Report Text: KCPS 260153Z 00000KT 10SM CLR M02/M04 A3019 RMK AO2 SLP228 T10171044
Loading
Personal Weather Stations






























Interactive Weather Map New forecast layout! Learn more

10-Day Weather Forecast

Advertisements
Track Severe Weather on mobile